sensor_id;sensor_type;location;lat;lon;timestamp;temperature;humidity
9544;DHT22;30418;51.45933468;7.33152330;2023-08-06T00:00:42;20.90;67.30
9544;DHT22;30418;51.45933468;7.33152330;2023-08-06T00:03:11;20.80;67.20
9544;DHT22;30418;51.45933468;7.33152330;2023-08-06T00:05:41;20.80;67.20
9544;DHT22;30418;51.45933468;7.33152330;2023-08-06T00:08:10;20.80;67.40
9544;DHT22;30418;51.45933468;7.33152330;2023-08-06T00:10:40;20.80;67.30
9544;DHT22;30418;51.45933468;7.33152330;2023-08-06T00:13:09;20.80;67.40
9544;DHT22;30418;51.45933468;7.33152330;2023-08-06T00:15:37;20.80;67.40
9544;DHT22;30418;51.45933468;7.33152330;2023-08-06T00:18:07;20.80;67.40
9544;DHT22;30418;51.45933468;7.33152330;2023-08-06T00:20:39;20.80;67.20
9544;DHT22;30418;51.45933468;7.33152330;2023-08-06T00:23:08;20.80;67.30
9544;DHT22;30418;51.45933468;7.33152330;2023-08-06T00:25:37;20.70;67.10
9544;DHT22;30418;51.45933468;7.33152330;2023-08-06T00:28:05;20.80;67.20
9544;DHT22;30418;51.45933468;7.33152330;2023-08-06T00:30:34;20.80;67.20
9544;DHT22;30418;51.45933468;7.33152330;2023-08-06T00:33:03;20.80;67.20
9544;DHT22;30418;51.45933468;7.33152330;2023-08-06T00:35:33;20.80;67.30
9544;DHT22;30418;51.45933468;7.33152330;2023-08-06T00:38:02;20.80;67.40
9544;DHT22;30418;51.45933468;7.33152330;2023-08-06T00:40:30;20.80;67.40
9544;DHT22;30418;51.45933468;7.33152330;2023-08-06T00:42:59;20.80;67.40
9544;DHT22;30418;51.45933468;7.33152330;2023-08-06T00:45:27;20.80;67.30
9544;DHT22;30418;51.45933468;7.33152330;2023-08-06T00:47:57;20.70;67.20
9544;DHT22;30418;51.45933468;7.33152330;2023-08-06T00:50:26;20.80;67.40
9544;DHT22;30418;51.45933468;7.33152330;2023-08-06T00:52:56;20.70;67.40
9544;DHT22;30418;51.45933468;7.33152330;2023-08-06T00:55:25;20.70;67.50
9544;DHT22;30418;51.45933468;7.33152330;2023-08-06T00:57:54;20.70;67.50
9544;DHT22;30418;51.45933468;7.33152330;2023-08-06T01:00:24;20.70;67.50
9544;DHT22;30418;51.45933468;7.33152330;2023-08-06T01:02:54;20.70;67.60
9544;DHT22;30418;51.45933468;7.33152330;2023-08-06T01:05:23;20.70;67.50
9544;DHT22;30418;51.45933468;7.33152330;2023-08-06T01:08:04;20.70;67.50
9544;DHT22;30418;51.45933468;7.33152330;2023-08-06T01:10:51;20.70;67.80
9544;DHT22;30418;51.45933468;7.33152330;2023-08-06T01:13:32;20.70;67.70
9544;DHT22;30418;51.45933468;7.33152330;2023-08-06T01:16:04;20.70;67.70
9544;DHT22;30418;51.45933468;7.33152330;2023-08-06T01:18:33;20.70;67.40
9544;DHT22;30418;51.45933468;7.33152330;2023-08-06T01:21:06;20.70;67.20
9544;DHT22;30418;51.45933468;7.33152330;2023-08-06T01:23:34;20.70;67.20
9544;DHT22;30418;51.45933468;7.33152330;2023-08-06T01:26:10;20.70;67.30
9544;DHT22;30418;51.45933468;7.33152330;2023-08-06T01:28:51;20.60;67.40
9544;DHT22;30418;51.45933468;7.33152330;2023-08-06T01:31:24;20.70;67.60
9544;DHT22;30418;51.45933468;7.33152330;2023-08-06T01:33:56;20.60;67.30
9544;DHT22;30418;51.45933468;7.33152330;2023-08-06T01:36:28;20.70;67.50
9544;DHT22;30418;51.45933468;7.33152330;2023-08-06T01:38:59;20.60;67.50
9544;DHT22;30418;51.45933468;7.33152330;2023-08-06T01:41:28;20.60;67.40
9544;DHT22;30418;51.45933468;7.33152330;2023-08-06T01:43:57;20.60;67.40
9544;DHT22;30418;51.45933468;7.33152330;2023-08-06T01:46:25;20.60;67.30
9544;DHT22;30418;51.45933468;7.33152330;2023-08-06T01:48:54;20.60;67.40
9544;DHT22;30418;51.45933468;7.33152330;2023-08-06T01:51:22;20.60;67.40
9544;DHT22;30418;51.45933468;7.33152330;2023-08-06T01:53:52;20.60;67.50
9544;DHT22;30418;51.45933468;7.33152330;2023-08-06T01:56:21;20.60;67.60
9544;DHT22;30418;51.45933468;7.33152330;2023-08-06T01:58:49;20.60;67.50
9544;DHT22;30418;51.45933468;7.33152330;2023-08-06T02:01:18;20.60;67.40
9544;DHT22;30418;51.45933468;7.33152330;2023-08-06T02:03:47;20.60;67.50
9544;DHT22;30418;51.45933468;7.33152330;2023-08-06T02:06:15;20.60;67.60
9544;DHT22;30418;51.45933468;7.33152330;2023-08-06T02:08:45;20.60;67.70
9544;DHT22;30418;51.45933468;7.33152330;2023-08-06T02:11:16;20.50;67.50
9544;DHT22;30418;51.45933468;7.33152330;2023-08-06T02:13:46;20.60;67.60
9544;DHT22;30418;51.45933468;7.33152330;2023-08-06T02:16:18;20.50;68.40
9544;DHT22;30418;51.45933468;7.33152330;2023-08-06T02:18:46;20.50;67.50
9544;DHT22;30418;51.45933468;7.33152330;2023-08-06T02:21:15;20.50;67.40
9544;DHT22;30418;51.45933468;7.33152330;2023-08-06T02:23:43;20.50;67.40
9544;DHT22;30418;51.45933468;7.33152330;2023-08-06T02:26:12;20.50;67.30
9544;DHT22;30418;51.45933468;7.33152330;2023-08-06T02:28:42;20.50;67.30
9544;DHT22;30418;51.45933468;7.33152330;2023-08-06T02:31:12;20.50;67.30
9544;DHT22;30418;51.45933468;7.33152330;2023-08-06T02:33:41;20.50;67.40
9544;DHT22;30418;51.45933468;7.33152330;2023-08-06T02:36:10;20.50;67.40
9544;DHT22;30418;51.45933468;7.33152330;2023-08-06T02:38:39;20.50;67.50
9544;DHT22;30418;51.45933468;7.33152330;2023-08-06T02:41:07;20.40;67.30
9544;DHT22;30418;51.45933468;7.33152330;2023-08-06T02:43:36;20.40;67.40
9544;DHT22;30418;51.45933468;7.33152330;2023-08-06T02:46:06;20.40;67.40
9544;DHT22;30418;51.45933468;7.33152330;2023-08-06T02:48:34;20.40;67.50
9544;DHT22;30418;51.45933468;7.33152330;2023-08-06T02:51:04;20.40;67.60
9544;DHT22;30418;51.45933468;7.33152330;2023-08-06T02:53:33;20.40;67.60
9544;DHT22;30418;51.45933468;7.33152330;2023-08-06T02:56:06;20.40;67.70
9544;DHT22;30418;51.45933468;7.33152330;2023-08-06T02:58:47;20.40;68.60
9544;DHT22;30418;51.45933468;7.33152330;2023-08-06T03:01:29;20.40;67.70
9544;DHT22;30418;51.45933468;7.33152330;2023-08-06T03:04:05;20.40;67.80
9544;DHT22;30418;51.45933468;7.33152330;2023-08-06T03:06:39;20.40;68.60
9544;DHT22;30418;51.45933468;7.33152330;2023-08-06T03:09:08;20.40;67.70
9544;DHT22;30418;51.45933468;7.33152330;2023-08-06T03:11:37;20.30;67.50
9544;DHT22;30418;51.45933468;7.33152330;2023-08-06T03:14:10;20.40;67.60
9544;DHT22;30418;51.45933468;7.33152330;2023-08-06T03:16:40;20.30;67.40
9544;DHT22;30418;51.45933468;7.33152330;2023-08-06T03:19:10;20.30;67.40
9544;DHT22;30418;51.45933468;7.33152330;2023-08-06T03:21:38;20.30;67.40
9544;DHT22;30418;51.45933468;7.33152330;2023-08-06T03:24:07;20.30;68.30
9544;DHT22;30418;51.45933468;7.33152330;2023-08-06T03:26:38;20.20;67.30
9544;DHT22;30418;51.45933468;7.33152330;2023-08-06T03:29:09;20.20;67.30
9544;DHT22;30418;51.45933468;7.33152330;2023-08-06T03:31:39;20.20;67.40
9544;DHT22;30418;51.45933468;7.33152330;2023-08-06T03:34:10;20.20;67.50
9544;DHT22;30418;51.45933468;7.33152330;2023-08-06T03:36:40;20.20;67.50
9544;DHT22;30418;51.45933468;7.33152330;2023-08-06T03:39:09;20.10;67.50
9544;DHT22;30418;51.45933468;7.33152330;2023-08-06T03:41:37;20.20;67.70
9544;DHT22;30418;51.45933468;7.33152330;2023-08-06T03:44:06;20.20;67.70
9544;DHT22;30418;51.45933468;7.33152330;2023-08-06T03:46:34;20.10;67.60
9544;DHT22;30418;51.45933468;7.33152330;2023-08-06T03:49:07;20.10;67.70
9544;DHT22;30418;51.45933468;7.33152330;2023-08-06T03:51:35;20.10;67.80
9544;DHT22;30418;51.45933468;7.33152330;2023-08-06T03:54:04;20.10;67.80
9544;DHT22;30418;51.45933468;7.33152330;2023-08-06T03:56:32;20.10;67.80
9544;DHT22;30418;51.45933468;7.33152330;2023-08-06T03:59:01;20.10;67.80
9544;DHT22;30418;51.45933468;7.33152330;2023-08-06T04:01:29;20.10;67.80
9544;DHT22;30418;51.45933468;7.33152330;2023-08-06T04:03:58;20.10;67.80
9544;DHT22;30418;51.45933468;7.33152330;2023-08-06T04:06:28;20.10;67.90
9544;DHT22;30418;51.45933468;7.33152330;2023-08-06T04:08:57;20.00;67.90
9544;DHT22;30418;51.45933468;7.33152330;2023-08-06T04:11:26;20.10;68.00
9544;DHT22;30418;51.45933468;7.33152330;2023-08-06T04:13:54;20.00;68.00
9544;DHT22;30418;51.45933468;7.33152330;2023-08-06T04:16:24;20.00;68.00
9544;DHT22;30418;51.45933468;7.33152330;2023-08-06T04:18:54;20.00;68.10
9544;DHT22;30418;51.45933468;7.33152330;2023-08-06T04:21:23;20.00;68.20
9544;DHT22;30418;51.45933468;7.33152330;2023-08-06T04:23:53;20.00;68.20
9544;DHT22;30418;51.45933468;7.33152330;2023-08-06T04:26:22;20.10;68.30
9544;DHT22;30418;51.45933468;7.33152330;2023-08-06T04:28:50;20.00;68.20
9544;DHT22;30418;51.45933468;7.33152330;2023-08-06T04:31:19;20.00;68.10
9544;DHT22;30418;51.45933468;7.33152330;2023-08-06T04:33:49;20.00;68.10
9544;DHT22;30418;51.45933468;7.33152330;2023-08-06T04:36:17;20.00;68.10
9544;DHT22;30418;51.45933468;7.33152330;2023-08-06T04:38:46;20.00;68.10
9544;DHT22;30418;51.45933468;7.33152330;2023-08-06T04:41:16;20.00;68.20
9544;DHT22;30418;51.45933468;7.33152330;2023-08-06T04:43:45;20.00;68.10
9544;DHT22;30418;51.45933468;7.33152330;2023-08-06T04:46:14;20.00;68.10
9544;DHT22;30418;51.45933468;7.33152330;2023-08-06T04:48:42;20.00;68.40
9544;DHT22;30418;51.45933468;7.33152330;2023-08-06T04:51:10;20.00;68.00
9544;DHT22;30418;51.45933468;7.33152330;2023-08-06T04:53:39;20.00;68.00
9544;DHT22;30418;51.45933468;7.33152330;2023-08-06T04:56:08;20.00;68.10
9544;DHT22;30418;51.45933468;7.33152330;2023-08-06T04:58:38;20.00;68.00
9544;DHT22;30418;51.45933468;7.33152330;2023-08-06T05:01:07;20.00;68.10
9544;DHT22;30418;51.45933468;7.33152330;2023-08-06T05:03:35;20.00;68.00
9544;DHT22;30418;51.45933468;7.33152330;2023-08-06T05:06:04;20.00;68.00
9544;DHT22;30418;51.45933468;7.33152330;2023-08-06T05:08:33;20.00;68.10
9544;DHT22;30418;51.45933468;7.33152330;2023-08-06T05:11:02;20.00;68.20
9544;DHT22;30418;51.45933468;7.33152330;2023-08-06T05:13:30;19.90;68.20
9544;DHT22;30418;51.45933468;7.33152330;2023-08-06T05:16:00;20.00;68.40
9544;DHT22;30418;51.45933468;7.33152330;2023-08-06T05:18:29;19.90;68.30
9544;DHT22;30418;51.45933468;7.33152330;2023-08-06T05:20:58;19.90;68.30
9544;DHT22;30418;51.45933468;7.33152330;2023-08-06T05:23:27;19.90;68.40
9544;DHT22;30418;51.45933468;7.33152330;2023-08-06T05:25:55;20.00;68.60
9544;DHT22;30418;51.45933468;7.33152330;2023-08-06T05:28:24;20.00;68.60
9544;DHT22;30418;51.45933468;7.33152330;2023-08-06T05:30:52;19.90;68.60
9544;DHT22;30418;51.45933468;7.33152330;2023-08-06T05:33:22;19.90;68.60
9544;DHT22;30418;51.45933468;7.33152330;2023-08-06T05:35:50;20.00;69.60
9544;DHT22;30418;51.45933468;7.33152330;2023-08-06T05:38:19;19.90;68.60
9544;DHT22;30418;51.45933468;7.33152330;2023-08-06T05:40:47;20.00;68.70
9544;DHT22;30418;51.45933468;7.33152330;2023-08-06T05:43:16;19.90;68.70
9544;DHT22;30418;51.45933468;7.33152330;2023-08-06T05:45:44;20.00;68.90
9544;DHT22;30418;51.45933468;7.33152330;2023-08-06T05:48:13;20.00;69.00
9544;DHT22;30418;51.45933468;7.33152330;2023-08-06T05:50:43;20.00;69.00
9544;DHT22;30418;51.45933468;7.33152330;2023-08-06T05:53:12;20.00;69.00
9544;DHT22;30418;51.45933468;7.33152330;2023-08-06T05:55:40;20.00;69.00
9544;DHT22;30418;51.45933468;7.33152330;2023-08-06T05:58:09;20.00;69.00
9544;DHT22;30418;51.45933468;7.33152330;2023-08-06T06:00:37;20.00;69.10
9544;DHT22;30418;51.45933468;7.33152330;2023-08-06T06:03:06;20.00;69.20
9544;DHT22;30418;51.45933468;7.33152330;2023-08-06T06:05:35;20.10;69.30
9544;DHT22;30418;51.45933468;7.33152330;2023-08-06T06:08:07;20.10;69.50
9544;DHT22;30418;51.45933468;7.33152330;2023-08-06T06:10:35;20.10;69.60
9544;DHT22;30418;51.45933468;7.33152330;2023-08-06T06:13:04;20.10;69.60
9544;DHT22;30418;51.45933468;7.33152330;2023-08-06T06:15:36;20.20;69.70
9544;DHT22;30418;51.45933468;7.33152330;2023-08-06T06:18:05;20.20;69.70
9544;DHT22;30418;51.45933468;7.33152330;2023-08-06T06:20:33;20.20;69.70
9544;DHT22;30418;51.45933468;7.33152330;2023-08-06T06:23:02;20.20;69.70
9544;DHT22;30418;51.45933468;7.33152330;2023-08-06T06:25:32;20.20;69.70
9544;DHT22;30418;51.45933468;7.33152330;2023-08-06T06:28:01;20.20;69.80
9544;DHT22;30418;51.45933468;7.33152330;2023-08-06T06:30:30;20.30;69.80
9544;DHT22;30418;51.45933468;7.33152330;2023-08-06T06:32:58;20.30;69.80
9544;DHT22;30418;51.45933468;7.33152330;2023-08-06T06:35:27;20.40;70.00
9544;DHT22;30418;51.45933468;7.33152330;2023-08-06T06:37:56;20.40;70.00
9544;DHT22;30418;51.45933468;7.33152330;2023-08-06T06:40:24;20.40;70.00
9544;DHT22;30418;51.45933468;7.33152330;2023-08-06T06:42:54;20.40;69.90
9544;DHT22;30418;51.45933468;7.33152330;2023-08-06T06:45:22;20.40;70.00
9544;DHT22;30418;51.45933468;7.33152330;2023-08-06T06:47:51;20.50;70.00
9544;DHT22;30418;51.45933468;7.33152330;2023-08-06T06:50:20;20.50;70.10
9544;DHT22;30418;51.45933468;7.33152330;2023-08-06T06:52:48;20.50;70.00
9544;DHT22;30418;51.45933468;7.33152330;2023-08-06T06:55:17;20.50;70.10
9544;DHT22;30418;51.45933468;7.33152330;2023-08-06T06:57:45;20.50;70.10
9544;DHT22;30418;51.45933468;7.33152330;2023-08-06T07:00:16;20.60;70.10
9544;DHT22;30418;51.45933468;7.33152330;2023-08-06T07:02:44;20.60;70.10
9544;DHT22;30418;51.45933468;7.33152330;2023-08-06T07:05:13;20.60;70.10
9544;DHT22;30418;51.45933468;7.33152330;2023-08-06T07:07:41;20.60;70.10
9544;DHT22;30418;51.45933468;7.33152330;2023-08-06T07:10:10;20.70;70.00
9544;DHT22;30418;51.45933468;7.33152330;2023-08-06T07:12:39;20.70;69.80
9544;DHT22;30418;51.45933468;7.33152330;2023-08-06T07:15:08;20.70;69.80
9544;DHT22;30418;51.45933468;7.33152330;2023-08-06T07:17:38;20.80;70.10
9544;DHT22;30418;51.45933468;7.33152330;2023-08-06T07:20:07;20.80;69.90
9544;DHT22;30418;51.45933468;7.33152330;2023-08-06T07:22:36;20.80;69.80
9544;DHT22;30418;51.45933468;7.33152330;2023-08-06T07:25:05;20.80;69.70
9544;DHT22;30418;51.45933468;7.33152330;2023-08-06T07:27:34;20.80;69.80
9544;DHT22;30418;51.45933468;7.33152330;2023-08-06T07:30:03;20.90;69.70
9544;DHT22;30418;51.45933468;7.33152330;2023-08-06T07:32:32;20.90;69.70
9544;DHT22;30418;51.45933468;7.33152330;2023-08-06T07:35:02;20.90;69.70
9544;DHT22;30418;51.45933468;7.33152330;2023-08-06T07:37:32;20.90;69.80
9544;DHT22;30418;51.45933468;7.33152330;2023-08-06T07:40:00;21.00;69.70
9544;DHT22;30418;51.45933468;7.33152330;2023-08-06T07:42:28;21.00;69.60
9544;DHT22;30418;51.45933468;7.33152330;2023-08-06T07:44:58;21.00;69.40
9544;DHT22;30418;51.45933468;7.33152330;2023-08-06T07:47:27;21.00;69.30
9544;DHT22;30418;51.45933468;7.33152330;2023-08-06T07:49:56;21.00;69.10
9544;DHT22;30418;51.45933468;7.33152330;2023-08-06T07:52:25;21.00;69.10
9544;DHT22;30418;51.45933468;7.33152330;2023-08-06T07:54:54;21.00;68.80
9544;DHT22;30418;51.45933468;7.33152330;2023-08-06T07:57:23;21.00;68.80
9544;DHT22;30418;51.45933468;7.33152330;2023-08-06T07:59:51;21.00;68.80
9544;DHT22;30418;51.45933468;7.33152330;2023-08-06T08:02:20;21.10;68.90
9544;DHT22;30418;51.45933468;7.33152330;2023-08-06T08:04:49;21.10;69.10
9544;DHT22;30418;51.45933468;7.33152330;2023-08-06T08:07:18;21.10;68.90
9544;DHT22;30418;51.45933468;7.33152330;2023-08-06T08:09:49;21.10;68.90
9544;DHT22;30418;51.45933468;7.33152330;2023-08-06T08:12:17;21.10;69.00
9544;DHT22;30418;51.45933468;7.33152330;2023-08-06T08:14:45;21.10;68.80
9544;DHT22;30418;51.45933468;7.33152330;2023-08-06T08:17:14;21.10;68.70
9544;DHT22;30418;51.45933468;7.33152330;2023-08-06T08:19:43;21.10;68.60
9544;DHT22;30418;51.45933468;7.33152330;2023-08-06T08:22:11;21.10;68.50
9544;DHT22;30418;51.45933468;7.33152330;2023-08-06T08:24:40;21.10;68.50
9544;DHT22;30418;51.45933468;7.33152330;2023-08-06T08:27:10;21.10;68.30
9544;DHT22;30418;51.45933468;7.33152330;2023-08-06T08:29:38;21.10;68.50
9544;DHT22;30418;51.45933468;7.33152330;2023-08-06T08:32:07;21.10;68.50
9544;DHT22;30418;51.45933468;7.33152330;2023-08-06T08:34:36;21.20;68.50
9544;DHT22;30418;51.45933468;7.33152330;2023-08-06T08:37:04;21.20;69.40
9544;DHT22;30418;51.45933468;7.33152330;2023-08-06T08:39:33;21.20;68.50
9544;DHT22;30418;51.45933468;7.33152330;2023-08-06T08:42:02;21.20;68.40
9544;DHT22;30418;51.45933468;7.33152330;2023-08-06T08:44:32;21.20;68.20
9544;DHT22;30418;51.45933468;7.33152330;2023-08-06T08:47:04;21.20;67.80
9544;DHT22;30418;51.45933468;7.33152330;2023-08-06T08:49:34;21.20;67.90
9544;DHT22;30418;51.45933468;7.33152330;2023-08-06T08:52:04;21.20;68.00
9544;DHT22;30418;51.45933468;7.33152330;2023-08-06T08:54:35;21.20;67.90
9544;DHT22;30418;51.45933468;7.33152330;2023-08-06T08:57:06;21.20;68.50
9544;DHT22;30418;51.45933468;7.33152330;2023-08-06T08:59:36;21.20;67.60
9544;DHT22;30418;51.45933468;7.33152330;2023-08-06T09:02:05;21.30;67.80
9544;DHT22;30418;51.45933468;7.33152330;2023-08-06T09:04:37;21.20;67.80
9544;DHT22;30418;51.45933468;7.33152330;2023-08-06T09:07:08;21.30;67.80
9544;DHT22;30418;51.45933468;7.33152330;2023-08-06T09:09:39;21.20;67.70
9544;DHT22;30418;51.45933468;7.33152330;2023-08-06T09:12:13;21.20;67.90
9544;DHT22;30418;51.45933468;7.33152330;2023-08-06T09:14:45;21.20;67.80
9544;DHT22;30418;51.45933468;7.33152330;2023-08-06T09:17:13;21.20;67.80
9544;DHT22;30418;51.45933468;7.33152330;2023-08-06T09:19:47;21.20;68.10
9544;DHT22;30418;51.45933468;7.33152330;2023-08-06T09:22:16;21.20;68.20
9544;DHT22;30418;51.45933468;7.33152330;2023-08-06T09:24:45;21.30;68.50
9544;DHT22;30418;51.45933468;7.33152330;2023-08-06T09:27:14;21.30;68.50
9544;DHT22;30418;51.45933468;7.33152330;2023-08-06T09:29:44;21.30;68.60
9544;DHT22;30418;51.45933468;7.33152330;2023-08-06T09:32:13;21.30;68.70
9544;DHT22;30418;51.45933468;7.33152330;2023-08-06T09:34:42;21.30;68.60
9544;DHT22;30418;51.45933468;7.33152330;2023-08-06T09:37:11;21.40;68.80
9544;DHT22;30418;51.45933468;7.33152330;2023-08-06T09:39:40;21.40;68.80
9544;DHT22;30418;51.45933468;7.33152330;2023-08-06T09:42:09;21.50;68.90
9544;DHT22;30418;51.45933468;7.33152330;2023-08-06T09:44:40;21.50;68.80
9544;DHT22;30418;51.45933468;7.33152330;2023-08-06T09:47:10;21.50;68.60
9544;DHT22;30418;51.45933468;7.33152330;2023-08-06T09:49:42;21.50;68.30
9544;DHT22;30418;51.45933468;7.33152330;2023-08-06T09:52:13;21.50;68.20
9544;DHT22;30418;51.45933468;7.33152330;2023-08-06T09:54:43;21.50;67.90
9544;DHT22;30418;51.45933468;7.33152330;2023-08-06T09:57:14;21.50;68.10
9544;DHT22;30418;51.45933468;7.33152330;2023-08-06T09:59:43;21.50;68.10
9544;DHT22;30418;51.45933468;7.33152330;2023-08-06T10:02:14;21.50;68.00
9544;DHT22;30418;51.45933468;7.33152330;2023-08-06T10:04:44;21.40;68.00
9544;DHT22;30418;51.45933468;7.33152330;2023-08-06T10:07:21;21.40;68.10
9544;DHT22;30418;51.45933468;7.33152330;2023-08-06T10:09:51;21.30;68.10
9544;DHT22;30418;51.45933468;7.33152330;2023-08-06T10:12:20;21.30;68.20
9544;DHT22;30418;51.45933468;7.33152330;2023-08-06T10:14:50;21.30;68.30
9544;DHT22;30418;51.45933468;7.33152330;2023-08-06T10:17:21;21.30;68.30
9544;DHT22;30418;51.45933468;7.33152330;2023-08-06T10:19:55;21.20;68.10
9544;DHT22;30418;51.45933468;7.33152330;2023-08-06T10:22:23;21.20;68.20
9544;DHT22;30418;51.45933468;7.33152330;2023-08-06T10:24:58;21.20;68.20
9544;DHT22;30418;51.45933468;7.33152330;2023-08-06T10:27:33;21.20;68.50
9544;DHT22;30418;51.45933468;7.33152330;2023-08-06T10:30:22;21.20;68.50
9544;DHT22;30418;51.45933468;7.33152330;2023-08-06T10:32:54;21.20;68.60
9544;DHT22;30418;51.45933468;7.33152330;2023-08-06T10:35:31;21.30;68.50
9544;DHT22;30418;51.45933468;7.33152330;2023-08-06T10:38:04;21.20;68.60
9544;DHT22;30418;51.45933468;7.33152330;2023-08-06T10:40:34;21.30;69.10
9544;DHT22;30418;51.45933468;7.33152330;2023-08-06T10:43:06;21.30;69.30
9544;DHT22;30418;51.45933468;7.33152330;2023-08-06T10:45:50;21.40;69.10
9544;DHT22;30418;51.45933468;7.33152330;2023-08-06T10:48:31;21.50;69.00
9544;DHT22;30418;51.45933468;7.33152330;2023-08-06T10:51:07;21.50;68.60
9544;DHT22;30418;51.45933468;7.33152330;2023-08-06T10:53:37;21.50;68.50
9544;DHT22;30418;51.45933468;7.33152330;2023-08-06T10:56:12;21.60;68.50
9544;DHT22;30418;51.45933468;7.33152330;2023-08-06T10:58:43;21.60;68.30
9544;DHT22;30418;51.45933468;7.33152330;2023-08-06T11:01:16;21.70;68.60
9544;DHT22;30418;51.45933468;7.33152330;2023-08-06T11:03:48;21.70;68.40
9544;DHT22;30418;51.45933468;7.33152330;2023-08-06T11:06:19;21.80;68.30
9544;DHT22;30418;51.45933468;7.33152330;2023-08-06T11:08:49;21.80;68.30
9544;DHT22;30418;51.45933468;7.33152330;2023-08-06T11:11:19;21.90;68.40
9544;DHT22;30418;51.45933468;7.33152330;2023-08-06T11:13:49;21.90;68.10
9544;DHT22;30418;51.45933468;7.33152330;2023-08-06T11:16:20;22.00;67.80
9544;DHT22;30418;51.45933468;7.33152330;2023-08-06T11:18:53;22.00;67.50
9544;DHT22;30418;51.45933468;7.33152330;2023-08-06T11:21:23;22.00;67.10
9544;DHT22;30418;51.45933468;7.33152330;2023-08-06T11:23:53;22.00;67.00
9544;DHT22;30418;51.45933468;7.33152330;2023-08-06T11:26:22;22.10;67.00
9544;DHT22;30418;51.45933468;7.33152330;2023-08-06T11:28:51;22.10;67.30
9544;DHT22;30418;51.45933468;7.33152330;2023-08-06T11:31:20;22.10;66.80
9544;DHT22;30418;51.45933468;7.33152330;2023-08-06T11:33:51;22.10;66.90
9544;DHT22;30418;51.45933468;7.33152330;2023-08-06T11:36:29;22.10;66.90
9544;DHT22;30418;51.45933468;7.33152330;2023-08-06T11:38:58;22.20;67.80
9544;DHT22;30418;51.45933468;7.33152330;2023-08-06T11:41:28;22.30;67.00
9544;DHT22;30418;51.45933468;7.33152330;2023-08-06T11:43:57;22.30;66.90
9544;DHT22;30418;51.45933468;7.33152330;2023-08-06T11:46:26;22.30;66.90
9544;DHT22;30418;51.45933468;7.33152330;2023-08-06T11:48:57;22.30;66.80
9544;DHT22;30418;51.45933468;7.33152330;2023-08-06T11:51:27;22.40;66.30
9544;DHT22;30418;51.45933468;7.33152330;2023-08-06T11:53:56;22.40;66.00
9544;DHT22;30418;51.45933468;7.33152330;2023-08-06T11:56:25;22.40;65.80
9544;DHT22;30418;51.45933468;7.33152330;2023-08-06T11:58:55;22.40;65.80
9544;DHT22;30418;51.45933468;7.33152330;2023-08-06T12:01:25;22.30;65.90
9544;DHT22;30418;51.45933468;7.33152330;2023-08-06T12:03:59;22.40;66.00
9544;DHT22;30418;51.45933468;7.33152330;2023-08-06T12:06:28;22.40;66.80
9544;DHT22;30418;51.45933468;7.33152330;2023-08-06T12:08:57;22.40;66.00
9544;DHT22;30418;51.45933468;7.33152330;2023-08-06T12:11:25;22.40;66.10
9544;DHT22;30418;51.45933468;7.33152330;2023-08-06T12:13:54;22.40;66.20
9544;DHT22;30418;51.45933468;7.33152330;2023-08-06T12:16:24;22.40;66.40
9544;DHT22;30418;51.45933468;7.33152330;2023-08-06T12:18:52;22.40;66.40
9544;DHT22;30418;51.45933468;7.33152330;2023-08-06T12:21:22;22.50;66.60
9544;DHT22;30418;51.45933468;7.33152330;2023-08-06T12:23:51;22.50;66.40
9544;DHT22;30418;51.45933468;7.33152330;2023-08-06T12:26:20;22.40;66.00
9544;DHT22;30418;51.45933468;7.33152330;2023-08-06T12:28:49;22.50;65.90
9544;DHT22;30418;51.45933468;7.33152330;2023-08-06T12:31:17;22.40;65.20
9544;DHT22;30418;51.45933468;7.33152330;2023-08-06T12:33:47;22.30;64.60
9544;DHT22;30418;51.45933468;7.33152330;2023-08-06T12:36:16;22.20;64.60
9544;DHT22;30418;51.45933468;7.33152330;2023-08-06T12:38:46;22.20;64.90
9544;DHT22;30418;51.45933468;7.33152330;2023-08-06T12:41:15;22.00;64.70
9544;DHT22;30418;51.45933468;7.33152330;2023-08-06T12:43:44;21.90;65.00
9544;DHT22;30418;51.45933468;7.33152330;2023-08-06T12:46:13;21.80;65.10
9544;DHT22;30418;51.45933468;7.33152330;2023-08-06T12:48:41;21.70;65.40
9544;DHT22;30418;51.45933468;7.33152330;2023-08-06T12:51:10;21.60;65.40
9544;DHT22;30418;51.45933468;7.33152330;2023-08-06T12:53:38;21.50;65.60
9544;DHT22;30418;51.45933468;7.33152330;2023-08-06T12:56:08;21.40;65.60
9544;DHT22;30418;51.45933468;7.33152330;2023-08-06T12:58:36;21.30;65.80
9544;DHT22;30418;51.45933468;7.33152330;2023-08-06T13:01:07;21.20;65.90
9544;DHT22;30418;51.45933468;7.33152330;2023-08-06T13:03:35;21.10;66.20
9544;DHT22;30418;51.45933468;7.33152330;2023-08-06T13:06:04;21.00;66.30
9544;DHT22;30418;51.45933468;7.33152330;2023-08-06T13:08:32;20.90;66.30
9544;DHT22;30418;51.45933468;7.33152330;2023-08-06T13:11:01;20.80;66.20
9544;DHT22;30418;51.45933468;7.33152330;2023-08-06T13:13:31;20.70;66.30
9544;DHT22;30418;51.45933468;7.33152330;2023-08-06T13:15:59;20.70;66.50
9544;DHT22;30418;51.45933468;7.33152330;2023-08-06T13:18:28;20.60;67.50
9544;DHT22;30418;51.45933468;7.33152330;2023-08-06T13:20:56;20.50;66.80
9544;DHT22;30418;51.45933468;7.33152330;2023-08-06T13:23:25;20.50;67.00
9544;DHT22;30418;51.45933468;7.33152330;2023-08-06T13:25:53;20.40;67.00
9544;DHT22;30418;51.45933468;7.33152330;2023-08-06T13:28:22;20.40;67.10
9544;DHT22;30418;51.45933468;7.33152330;2023-08-06T13:30:52;20.30;67.10
9544;DHT22;30418;51.45933468;7.33152330;2023-08-06T13:33:21;20.30;67.40
9544;DHT22;30418;51.45933468;7.33152330;2023-08-06T13:35:52;20.20;67.30
9544;DHT22;30418;51.45933468;7.33152330;2023-08-06T13:38:21;20.20;67.50
9544;DHT22;30418;51.45933468;7.33152330;2023-08-06T13:40:49;20.20;67.70
9544;DHT22;30418;51.45933468;7.33152330;2023-08-06T13:43:19;20.10;67.60
9544;DHT22;30418;51.45933468;7.33152330;2023-08-06T13:45:47;20.10;67.50
9544;DHT22;30418;51.45933468;7.33152330;2023-08-06T13:48:19;20.10;67.70